This is the latest recevied weather packets stored in our database for station/object YS1AHL-32. If no packets are shown the sender has not sent any weather packets the latest 10 day(s).
| Time | Temp. | Humidity | Pressure | Rain* | Wind** | Luminosity | Snow |
|---|---|---|---|---|---|---|---|
| 1777689597 | 0.56° C | 71% | 1012 hPa | 0 mm | - | - | - |
| 1777689057 | 1.11° C | 71% | 1013 hPa | 0 mm | - | - | - |
| 1777688996 | 1.11° C | 71% | 1013 hPa | 0 mm | - | - | - |
| 1777688396 | -1.67° C | 67% | 1013 hPa | 0 mm | - | - | - |
| 1777674042 | 8.33° C | 38% | 1010 hPa | 0 mm | - | - | - |
| 1777673982 | 8.33° C | 38% | 1010 hPa | 0 mm | - | - | - |
| 1777673442 | 8.89° C | 38% | 1010 hPa | 0 mm | - | - | - |
| 1777672841 | 9.44° C | 38% | 1010 hPa | 0 mm | - | - | - |
| 1777671580 | 10.56° C | 38% | 1010 hPa | 0 mm | - | - | - |
| 1777671039 | 11.11° C | 38% | 1009 hPa | 0 mm | - | - | - |
| 1777670439 | 11.67° C | 38% | 1009 hPa | 0 mm | - | - | - |
| 1777669838 | 12.22° C | 38% | 1009 hPa | 0 mm | - | - | - |
| 1777668036 | 7.78° C | 37% | 1009 hPa | 0 mm | - | - | - |
| 1777667436 | 8.33° C | 37% | 1009 hPa | 0 mm | - | - | - |
| 1777666235 | 6.67° C | 37% | 1009 hPa | 0 mm | - | - | - |
| 1777665034 | 7.78° C | 37% | 1009 hPa | 0 mm | - | - | - |
| 1777663232 | 8.89° C | 37% | 1009 hPa | 0 mm | - | - | - |
| 1777663172 | 8.89° C | 37% | 1009 hPa | 0 mm | - | - | - |
| 1777661430 | 8.33° C | 37% | 1009 hPa | 0 mm | - | - | - |
| 1777660229 | 7.78° C | 38% | 1009 hPa | 0 mm | - | - | - |
| 1777660169 | 7.78° C | 38% | 1009 hPa | 0 mm | - | - | - |
| 1777659628 | 8.33° C | 38% | 1009 hPa | 0 mm | - | - | - |
| 1777659028 | 7.22° C | 40% | 1009 hPa | 0 mm | - | - | - |
| 1777656024 | 10° C | 40% | 1009 hPa | 0 mm | - | - | - |
| 1777655424 | 10.56° C | 40% | 1009 hPa | 0 mm | - | - | - |
* Rain latest hour (hover to see other rain measurements)
** Current wind speed in m/s (hover to see current wind gust speed)